Main page
METAR-TAF:

METAR-TAF

Airports :

Nîmes, France

Nîmes–Alès–Camargue–Cévennes Airport

latitude: 43-45N, longitude: 004-25E, elevation: 94 m

Current weather observation

The report was made 20 minutes ago, at 11:30 UTC
Wind 8 kt from the North/Northeast, varying between North and East/Northeast
Temperature 13°C
Humidity 41%
Pressure 1022 hPa
Visibility 10 km or more
no clouds below 1500 m and no cumulonimbus

METAR: LFTW 201130Z AUTO 03008KT 010V070 CAVOK 13/00 Q1022 NOSIG

Time: 12:50 (11:50 UTC)

Forecast

The report was made 3 hours and 50 minutes ago, at 08:00 UTC
Forecast valid from 20 at 09 UTC to 21 at 09 UTC
Wind 12 kt from the North
Visibility 10 km or more
no clouds below 1500 m and no cumulonimbus
Temporary
from 20 at 13 UTC to 21 at 09 UTC
Wind 2 kt from variable directions

TAF: LFTW 200800Z 2009/2109 36012KT CAVOK TEMPO 2013/2109 VRB02KT

Weather observations and forecasts of more than 4000 airports (METAR and TAF reports).

The available stations are represented by yellow and red dots on the map.

Hover mouse over dot to see the name of the station.

Then click to see weather observations and forecasts.

To change the map : click on the green buttons with a black cross to zoom in, on the green button with a dash to zoom out, or on the green arrows for adjacent maps.


METAR-TAF: